Terminal Aerodrome Forecast
Issued by NWS Wilmington, OH

Current Version | Previous Version | Graphics & Text | Print | Product List | Glossary On
Versions: 1 2 3 4 5 6 7 8 9 10 11 12 13 14 15 16 17 18 19 20 21
000
FTUS41 KILN 260800 AAA
TAFCMH
TAF AMD
KCMH 260857Z 2609/2706 36007KT P6SM OVC060
     FM261300 01012KT P6SM FEW040
     FM270000 35008KT P6SM SCT040=

USA.gov is the U.S. government's official web portal to all federal, state and local government web resources and services.